Time;durP1;ratioP1;P1;durP2;ratioP2;P2;SDS_P1;SDS_P2;PMS_P1;PMS_P2;Temp;Humidity;BMP_temperature;BMP_pressure;BME280_temperature;BME280_humidity;BME280_pressure;Samples;Min_cycle;Max_cycle;Signal;HPM_P1;HPM_P2
2022/04/23 00:01:43;;;;;;;17.70;16.00;;;15.70;68.60;;;;;;5002445;28;20233;-74
2022/04/23 00:04:10;;;;;;;19.13;17.07;;;15.80;68.80;;;;;;5008510;28;21121;-73
2022/04/23 00:06:39;;;;;;;19.00;16.30;;;15.70;68.70;;;;;;5008038;28;20496;-74
2022/04/23 00:09:05;;;;;;;19.50;16.90;;;15.70;68.90;;;;;;5006616;28;20966;-73
2022/04/23 00:11:31;;;;;;;17.60;15.80;;;15.70;69.00;;;;;;5004908;28;20463;-73
2022/04/23 00:13:56;;;;;;;22.00;16.87;;;15.70;69.50;;;;;;5009538;28;20440;-73
2022/04/23 00:16:23;;;;;;;17.97;16.27;;;15.50;69.40;;;;;;5005228;28;20235;-74
2022/04/23 00:18:49;;;;;;;19.50;17.40;;;15.70;69.90;;;;;;5003020;28;20618;-74
2022/04/23 00:21:14;;;;;;;18.97;16.37;;;15.60;69.40;;;;;;5011886;28;20447;-73
2022/04/23 00:23:40;;;;;;;17.40;15.47;;;15.60;69.80;;;;;;5010149;28;20889;-74
2022/04/23 00:26:06;;;;;;;19.43;16.37;;;15.60;69.90;;;;;;5009773;28;20267;-74
2022/04/23 00:28:31;;;;;;;21.40;16.07;;;15.50;71.30;;;;;;5008570;28;20184;-73
2022/04/23 00:30:57;;;;;;;18.93;15.97;;;15.50;70.30;;;;;;5008928;28;20767;-73
2022/04/23 00:33:23;;;;;;;18.77;16.10;;;15.50;70.50;;;;;;5011937;28;20307;-74
2022/04/23 00:35:49;;;;;;;18.10;16.20;;;15.30;70.70;;;;;;5005979;28;20188;-75
2022/04/23 00:38:16;;;;;;;21.53;17.60;;;15.50;71.10;;;;;;5009331;28;20712;-73
2022/04/23 00:40:43;;;;;;;18.37;16.47;;;15.50;71.00;;;;;;5007625;28;20447;-75
2022/04/23 00:43:24;;;;;;;17.80;16.03;;;15.60;71.10;;;;;;5005659;28;20458;-73
2022/04/23 00:45:49;;;;;;;18.43;16.57;;;15.50;71.10;;;;;;5003401;28;20513;-72
2022/04/23 00:48:15;;;;;;;21.00;15.43;;;15.40;71.40;;;;;;5004945;28;22650;-74
2022/04/23 00:50:41;;;;;;;18.70;15.93;;;15.30;71.80;;;;;;5011720;28;20189;-74
2022/04/23 00:53:07;;;;;;;18.17;16.27;;;15.40;72.10;;;;;;5010551;28;20208;-73
2022/04/23 00:55:34;;;;;;;18.67;16.70;;;15.40;71.70;;;;;;5011517;28;20439;-73
2022/04/23 00:57:59;;;;;;;19.13;17.03;;;15.30;72.20;;;;;;5007374;28;20544;-74
2022/04/23 01:00:25;;;;;;;19.73;16.03;;;15.40;72.20;;;;;;5008090;28;20444;-74
2022/04/23 01:02:54;;;;;;;16.80;15.00;;;15.30;72.50;;;;;;5006891;28;20566;-75
2022/04/23 01:05:23;;;;;;;19.27;16.90;;;15.30;72.90;;;;;;5007896;28;20467;-75
2022/04/23 01:07:50;;;;;;;19.73;17.60;;;15.20;73.10;;;;;;5011949;28;20439;-73
2022/04/23 01:10:15;;;;;;;19.30;17.27;;;15.00;74.60;;;;;;5007836;28;20440;-75
2022/04/23 01:12:42;;;;;;;20.80;17.33;;;15.00;74.00;;;;;;5006536;28;20478;-74
2022/04/23 01:15:10;;;;;;;19.30;16.50;;;14.80;74.60;;;;;;5009230;28;20196;-72
2022/04/23 01:17:37;;;;;;;18.17;15.77;;;15.00;75.10;;;;;;5008766;28;20943;-74
2022/04/23 01:20:08;;;;;;;19.03;17.07;;;15.00;74.90;;;;;;5009791;28;20934;-75
2022/04/23 01:22:36;;;;;;;18.93;16.90;;;14.90;75.00;;;;;;5008848;28;20467;-74
2022/04/23 01:25:06;;;;;;;22.17;17.03;;;14.70;75.60;;;;;;5006905;28;20440;-73
2022/04/23 01:27:32;;;;;;;20.83;16.30;;;14.60;76.10;;;;;;5006466;28;20438;-73
2022/04/23 01:29:57;;;;;;;20.60;18.40;;;14.50;76.50;;;;;;5009691;28;20452;-74
2022/04/23 01:32:23;;;;;;;20.07;17.87;;;14.60;76.80;;;;;;5008976;28;20490;-74
2022/04/23 01:34:49;;;;;;;19.97;17.27;;;14.60;76.80;;;;;;5008608;28;20188;-74
2022/04/23 01:37:17;;;;;;;22.17;18.63;;;14.50;76.80;;;;;;5008030;28;20181;-73
2022/04/23 01:39:49;;;;;;;19.27;17.27;;;14.60;77.20;;;;;;5003172;28;20447;-73
2022/04/23 01:42:19;;;;;;;19.13;17.00;;;14.50;78.00;;;;;;5005304;28;20469;-74
2022/04/23 01:44:50;;;;;;;21.97;18.37;;;14.50;77.90;;;;;;5008137;28;20441;-72
2022/04/23 01:47:16;;;;;;;29.47;18.37;;;14.40;78.20;;;;;;5006208;28;20538;-73
2022/04/23 01:49:44;;;;;;;20.17;17.60;;;14.30;78.30;;;;;;5007548;28;20442;-74
2022/04/23 01:52:10;;;;;;;20.80;18.60;;;14.40;79.00;;;;;;5012536;28;20570;-73
2022/04/23 01:54:36;;;;;;;21.77;18.27;;;14.40;79.00;;;;;;5009661;28;21022;-73
2022/04/23 01:57:02;;;;;;;21.23;18.27;;;14.30;79.40;;;;;;5013407;28;20439;-73
2022/04/23 01:59:28;;;;;;;22.60;19.23;;;14.30;79.60;;;;;;5009274;28;20457;-73
2022/04/23 02:01:54;;;;;;;21.17;18.97;;;14.40;79.90;;;;;;5006893;28;20450;-73
2022/04/23 02:04:19;;;;;;;21.43;17.70;;;14.30;80.20;;;;;;5013099;28;20185;-74
2022/04/23 02:06:45;;;;;;;21.00;18.53;;;14.10;81.10;;;;;;5011478;28;20240;-74
2022/04/23 02:09:12;;;;;;;22.37;18.80;;;14.10;82.60;;;;;;5009646;28;20191;-73
2022/04/23 02:11:38;;;;;;;21.77;18.40;;;14.10;81.70;;;;;;5014219;28;20459;-74
2022/04/23 02:14:04;;;;;;;22.57;18.87;;;14.00;82.00;;;;;;5010815;28;20435;-74
2022/04/23 02:16:30;;;;;;;23.03;20.00;;;14.10;82.60;;;;;;5010640;28;20443;-73
2022/04/23 02:18:57;;;;;;;22.57;18.93;;;14.10;82.80;;;;;;5007406;28;20450;-74
2022/04/23 02:21:24;;;;;;;20.93;18.63;;;14.00;83.00;;;;;;5013264;28;20467;-74
2022/04/23 02:23:50;;;;;;;19.80;16.67;;;14.00;83.80;;;;;;5015560;28;20440;-74
2022/04/23 02:26:15;;;;;;;21.20;18.47;;;14.10;83.40;;;;;;5006475;28;20529;-74
2022/04/23 02:28:41;;;;;;;24.47;18.83;;;14.00;84.00;;;;;;5008396;28;20300;-75
2022/04/23 02:31:07;;;;;;;22.07;18.10;;;14.10;84.30;;;;;;5011359;28;20841;-73
2022/04/23 02:33:33;;;;;;;19.93;17.80;;;14.10;84.50;;;;;;5012879;28;20529;-75
2022/04/23 02:35:59;;;;;;;25.50;19.13;;;14.00;85.20;;;;;;5010957;28;20435;-75
2022/04/23 02:38:25;;;;;;;25.00;19.07;;;13.90;85.60;;;;;;5007357;28;20468;-74
2022/04/23 02:40:51;;;;;;;21.17;18.67;;;13.90;85.90;;;;;;5009605;28;20555;-73
2022/04/23 02:43:16;;;;;;;19.63;17.50;;;13.90;86.40;;;;;;5009745;28;20209;-74
2022/04/23 02:45:42;;;;;;;22.50;19.37;;;13.90;86.70;;;;;;5011564;28;20212;-72
2022/04/23 02:48:11;;;;;;;22.77;19.47;;;13.80;87.90;;;;;;5010628;28;20177;-73
2022/04/23 02:50:38;;;;;;;20.70;18.43;;;13.80;88.30;;;;;;5013723;28;20173;-74
2022/04/23 02:53:05;;;;;;;22.40;18.30;;;13.70;88.60;;;;;;5008884;28;20513;-73
2022/04/23 02:55:31;;;;;;;25.23;19.73;;;13.60;89.10;;;;;;5009997;28;20431;-74
2022/04/23 02:58:08;;;;;;;23.50;18.40;;;13.70;90.00;;;;;;5011846;28;20521;-74
2022/04/23 03:00:35;;;;;;;20.60;17.60;;;13.70;90.00;;;;;;5010678;28;20466;-74
2022/04/23 03:03:01;;;;;;;22.27;18.50;;;13.70;90.10;;;;;;5011694;28;20467;-74
2022/04/23 03:05:26;;;;;;;26.30;18.67;;;13.70;90.30;;;;;;5025248;28;20486;-73
2022/04/23 03:07:55;;;;;;;22.93;18.80;;;13.60;90.60;;;;;;5013169;28;20235;-74
2022/04/23 03:10:21;;;;;;;21.87;18.60;;;13.50;91.10;;;;;;5013273;28;20250;-73
2022/04/23 03:12:47;;;;;;;21.07;18.07;;;13.40;91.70;;;;;;5009246;28;20554;-73
2022/04/23 03:15:16;;;;;;;21.67;18.60;;;13.50;91.90;;;;;;5006465;28;20775;-74
2022/04/23 03:17:43;;;;;;;22.10;17.70;;;13.40;92.00;;;;;;5013899;28;20490;-74
2022/04/23 03:20:10;;;;;;;29.70;18.70;;;13.40;92.30;;;;;;5015579;28;21031;-73
2022/04/23 03:22:39;;;;;;;23.73;19.60;;;13.20;93.00;;;;;;5012334;28;20450;-73
2022/04/23 03:25:10;;;;;;;24.13;19.70;;;13.20;93.70;;;;;;5011968;28;20454;-74
2022/04/23 03:27:36;;;;;;;22.90;18.93;;;13.20;94.00;;;;;;5014562;28;20444;-73
2022/04/23 03:30:03;;;;;;;21.27;17.50;;;13.20;94.40;;;;;;5007415;28;20439;-74
2022/04/23 03:32:29;;;;;;;21.40;18.67;;;13.10;95.10;;;;;;5007185;28;20200;-74
2022/04/23 03:34:54;;;;;;;21.23;16.93;;;13.10;95.40;;;;;;5012010;28;20463;-74
2022/04/23 03:37:21;;;;;;;19.87;17.43;;;13.10;95.50;;;;;;5015441;28;20840;-74
2022/04/23 03:39:47;;;;;;;21.50;18.30;;;13.00;96.30;;;;;;5011446;28;20193;-74
2022/04/23 03:42:12;;;;;;;21.93;18.10;;;12.90;96.90;;;;;;5011880;28;20459;-74
2022/04/23 03:44:38;;;;;;;19.80;17.20;;;12.90;97.60;;;;;;5011632;28;20188;-73
2022/04/23 03:47:04;;;;;;;19.97;17.73;;;13.00;98.20;;;;;;5008968;28;20219;-73
2022/04/23 03:49:30;;;;;;;20.30;17.80;;;13.00;98.70;;;;;;5013313;28;20204;-73
2022/04/23 03:51:57;;;;;;;21.73;18.33;;;12.80;99.50;;;;;;5011613;28;20878;-73
2022/04/23 03:54:23;;;;;;;22.00;16.30;;;12.80;99.90;;;;;;5010358;28;21255;-74
2022/04/23 03:56:48;;;;;;;22.63;18.47;;;12.90;99.90;;;;;;5014035;28;20435;-74
2022/04/23 03:59:15;;;;;;;19.63;16.77;;;12.80;99.90;;;;;;5013076;28;20502;-73
2022/04/23 04:01:41;;;;;;;20.50;18.30;;;12.80;99.90;;;;;;5012185;28;20209;-74
2022/04/23 04:04:07;;;;;;;20.33;17.67;;;12.90;99.90;;;;;;5017746;28;21210;-75
2022/04/23 04:06:33;;;;;;;19.07;16.43;;;12.90;99.90;;;;;;5012329;28;21013;-74
2022/04/23 04:08:59;;;;;;;21.60;18.63;;;12.80;99.90;;;;;;5012823;28;20430;-73
2022/04/23 04:11:25;;;;;;;22.10;17.93;;;12.80;99.90;;;;;;5009009;28;20210;-74
2022/04/23 04:13:50;;;;;;;18.20;16.30;;;12.90;99.90;;;;;;5014704;28;20427;-72
2022/04/23 04:16:18;;;;;;;20.90;16.50;;;12.90;99.90;;;;;;5010255;28;20208;-73
2022/04/23 04:18:46;;;;;;;22.30;18.33;;;12.90;99.90;;;;;;5010270;28;20227;-73
2022/04/23 04:21:13;;;;;;;20.17;17.50;;;12.80;99.90;;;;;;5012182;28;20438;-74
2022/04/23 04:23:39;;;;;;;19.13;17.03;;;12.80;99.90;;;;;;5011852;28;20439;-74
2022/04/23 04:26:07;;;;;;;19.73;17.23;;;12.70;99.90;;;;;;5010596;28;20564;-74
2022/04/23 04:28:33;;;;;;;20.27;16.80;;;12.70;99.90;;;;;;5010778;28;20835;-74
2022/04/23 04:33:43;;;;;;;21.50;17.40;;;12.60;99.90;;;;;;5013748;28;20199;-74
2022/04/23 04:36:08;;;;;;;24.43;17.37;;;12.60;99.90;;;;;;5014821;28;20799;-73
2022/04/23 04:38:35;;;;;;;22.87;18.30;;;12.70;99.90;;;;;;5012256;28;20185;-74
2022/04/23 04:41:01;;;;;;;19.03;16.80;;;12.60;99.90;;;;;;5009453;28;20200;-73
2022/04/23 04:43:27;;;;;;;21.10;16.57;;;12.70;99.90;;;;;;5014585;28;20428;-74
2022/04/23 04:45:52;;;;;;;20.60;15.97;;;12.60;99.90;;;;;;5014125;28;20204;-74
2022/04/23 04:48:18;;;;;;;21.43;18.10;;;12.50;99.90;;;;;;5015020;28;20269;-74
2022/04/23 04:50:44;;;;;;;21.50;17.47;;;12.50;99.90;;;;;;5015338;28;20644;-73
2022/04/23 04:53:09;;;;;;;18.77;16.77;;;12.50;99.90;;;;;;5013720;28;21374;-74
2022/04/23 04:55:36;;;;;;;21.53;17.90;;;12.60;99.90;;;;;;5014598;28;20214;-72
2022/04/23 04:58:03;;;;;;;19.27;16.80;;;12.50;99.90;;;;;;5014504;28;20180;-72
2022/04/23 05:00:30;;;;;;;20.67;17.90;;;12.50;99.90;;;;;;5011105;28;20443;-73
2022/04/23 05:02:56;;;;;;;19.77;16.43;;;12.60;99.90;;;;;;5013636;28;20444;-74
2022/04/23 05:05:22;;;;;;;20.20;17.87;;;12.60;99.90;;;;;;5014170;28;20431;-74
2022/04/23 05:07:47;;;;;;;17.87;15.73;;;12.60;99.90;;;;;;5011551;28;20958;-74
2022/04/23 05:10:13;;;;;;;20.00;17.20;;;12.50;99.90;;;;;;5008078;28;20185;-73
2022/04/23 05:12:38;;;;;;;22.23;16.27;;;12.40;99.90;;;;;;5008877;28;20283;-74
2022/04/23 05:15:05;;;;;;;18.50;16.07;;;12.50;99.90;;;;;;5010059;28;20188;-74
2022/04/23 05:17:30;;;;;;;20.33;15.77;;;12.70;99.90;;;;;;5008688;28;20199;-74
2022/04/23 05:19:59;;;;;;;18.50;16.53;;;12.60;99.90;;;;;;5011308;28;20443;-73
2022/04/23 05:22:25;;;;;;;17.30;15.27;;;12.80;99.90;;;;;;5010812;28;20235;-74
2022/04/23 05:24:50;;;;;;;21.23;17.33;;;12.80;99.90;;;;;;5010090;28;20439;-73
2022/04/23 05:27:16;;;;;;;17.47;15.40;;;12.80;99.90;;;;;;5018911;28;20463;-74
2022/04/23 05:29:42;;;;;;;22.20;16.07;;;12.90;99.90;;;;;;5015012;28;20997;-74
2022/04/23 05:32:08;;;;;;;17.97;14.93;;;12.90;99.90;;;;;;5018491;28;20205;-74
2022/04/23 05:34:34;;;;;;;18.87;15.17;;;12.90;99.90;;;;;;5018933;28;20192;-74
2022/04/23 05:37:00;;;;;;;17.90;15.60;;;13.00;99.90;;;;;;5017935;28;20530;-74
2022/04/23 05:39:26;;;;;;;19.57;16.17;;;12.90;99.90;;;;;;5014590;28;20569;-73
2022/04/23 05:41:52;;;;;;;25.63;15.03;;;12.70;99.90;;;;;;5012027;28;21187;-74
2022/04/23 05:44:17;;;;;;;15.10;13.30;;;12.80;99.90;;;;;;5016715;28;20295;-73
2022/04/23 05:46:43;;;;;;;17.60;13.43;;;13.00;99.90;;;;;;5014961;28;20235;-74
2022/04/23 05:49:09;;;;;;;15.40;13.80;;;13.00;99.90;;;;;;5015021;28;20316;-74
2022/04/23 05:51:34;;;;;;;15.10;12.83;;;13.00;99.90;;;;;;5016367;28;20507;-75
2022/04/23 05:54:00;;;;;;;15.60;13.40;;;13.00;99.90;;;;;;5015397;28;20185;-73
2022/04/23 05:56:25;;;;;;;15.53;12.97;;;13.10;99.90;;;;;;5016716;28;21102;-73
2022/04/23 05:58:51;;;;;;;13.80;12.20;;;13.10;99.90;;;;;;5018676;28;20200;-75
2022/04/23 06:01:20;;;;;;;15.93;13.43;;;13.20;99.90;;;;;;5020218;28;20195;-73
2022/04/23 06:03:46;;;;;;;15.27;12.50;;;13.20;99.90;;;;;;5023930;28;20183;-73
2022/04/23 06:06:11;;;;;;;14.03;12.30;;;13.20;99.90;;;;;;5028428;28;20522;-74
2022/04/23 06:08:41;;;;;;;13.20;11.80;;;13.30;99.90;;;;;;5023519;28;21021;-75
2022/04/23 06:11:07;;;;;;;16.43;12.37;;;13.40;99.90;;;;;;5021595;28;20193;-74
2022/04/23 06:13:33;;;;;;;12.70;11.40;;;13.40;99.90;;;;;;5015700;28;20427;-75
2022/04/23 06:15:58;;;;;;;13.13;11.73;;;13.30;99.90;;;;;;5014808;28;20243;-75
2022/04/23 06:18:25;;;;;;;15.27;12.83;;;13.20;99.90;;;;;;5014820;28;20197;-72
2022/04/23 06:20:56;;;;;;;12.77;11.47;;;13.30;99.90;;;;;;5018057;28;20188;-74
2022/04/23 06:23:22;;;;;;;13.37;10.87;;;13.50;99.90;;;;;;5014231;28;20478;-73
2022/04/23 06:25:47;;;;;;;12.27;10.97;;;13.50;99.90;;;;;;5014992;28;20467;-74
2022/04/23 06:28:13;;;;;;;11.60;10.50;;;13.60;99.90;;;;;;5014813;28;20189;-73
2022/04/23 06:30:38;;;;;;;13.37;11.83;;;13.40;99.90;;;;;;5025974;28;20219;-73
2022/04/23 06:33:05;;;;;;;11.93;10.57;;;13.50;99.90;;;;;;5022668;28;20255;-73
2022/04/23 06:35:30;;;;;;;15.70;10.83;;;13.50;99.90;;;;;;5021074;28;20267;-75
2022/04/23 06:37:57;;;;;;;12.33;10.70;;;13.50;99.90;;;;;;5019334;28;20531;-74
2022/04/23 06:40:23;;;;;;;13.43;10.77;;;13.50;99.90;;;;;;5013630;28;20196;-74
2022/04/23 06:42:49;;;;;;;11.80;10.53;;;13.40;99.90;;;;;;5010031;28;20604;-73
2022/04/23 06:45:14;;;;;;;11.53;10.33;;;13.50;99.90;;;;;;5011685;28;20185;-73
2022/04/23 06:47:40;;;;;;;11.63;9.97;;;13.50;99.90;;;;;;5011448;28;20464;-74
2022/04/23 06:50:07;;;;;;;14.50;11.20;;;13.50;99.90;;;;;;5000269;28;20174;-74
2022/04/23 06:52:33;;;;;;;13.63;10.97;;;13.50;99.90;;;;;;5010196;28;20200;-74
2022/04/23 06:54:58;;;;;;;13.13;11.13;;;13.60;99.90;;;;;;5005473;28;20416;-73
2022/04/23 06:57:24;;;;;;;11.80;10.13;;;13.60;99.90;;;;;;5010330;28;20550;-73
2022/04/23 06:59:51;;;;;;;13.90;12.50;;;13.60;99.90;;;;;;5008539;28;20192;-73
2022/04/23 07:02:18;;;;;;;11.77;10.57;;;13.70;99.90;;;;;;5011345;28;20795;-73
2022/04/23 07:04:44;;;;;;;12.03;10.83;;;13.70;99.90;;;;;;5007372;28;20440;-73
2022/04/23 07:07:10;;;;;;;13.00;10.90;;;13.70;99.90;;;;;;5012112;28;20467;-74
2022/04/23 07:09:36;;;;;;;11.67;10.43;;;13.70;99.90;;;;;;5011855;28;20574;-73
2022/04/23 07:12:03;;;;;;;11.20;10.10;;;13.70;99.90;;;;;;5009479;28;20443;-72
2022/04/23 07:14:29;;;;;;;12.20;10.50;;;13.80;99.90;;;;;;5013106;28;20454;-72
2022/04/23 07:16:54;;;;;;;11.33;10.23;;;13.90;99.90;;;;;;5010025;28;20435;-73
2022/04/23 07:19:20;;;;;;;12.37;9.50;;;13.80;99.90;;;;;;5007796;28;20192;-73
2022/04/23 07:21:46;;;;;;;12.03;10.80;;;13.90;99.90;;;;;;5010247;28;20219;-73
2022/04/23 07:24:13;;;;;;;12.87;11.47;;;13.90;99.90;;;;;;5011359;28;20246;-73
2022/04/23 07:26:39;;;;;;;12.40;10.53;;;14.00;99.90;;;;;;5010390;28;20215;-73
2022/04/23 07:29:10;;;;;;;10.70;9.60;;;14.00;99.90;;;;;;5006963;28;20953;-72
2022/04/23 07:31:37;;;;;;;12.53;9.93;;;14.10;99.90;;;;;;5010103;28;20493;-73
2022/04/23 07:39:33;;;;;;;11.30;10.10;;;14.10;99.90;;;;;;5011790;28;20439;-72
2022/04/23 07:41:58;;;;;;;11.67;9.60;;;14.20;99.90;;;;;;5007743;28;20467;-74
2022/04/23 07:44:25;;;;;;;15.67;11.07;;;14.30;99.90;;;;;;5011353;28;20434;-73
2022/04/23 07:46:54;;;;;;;10.57;9.07;;;14.40;99.90;;;;;;5010962;28;20239;-73
2022/04/23 07:49:19;;;;;;;10.97;9.87;;;14.60;99.90;;;;;;5009423;28;20416;-73
2022/04/23 07:51:49;;;;;;;10.83;9.70;;;14.60;99.90;;;;;;5013835;28;20450;-72
2022/04/23 07:54:15;;;;;;;10.83;9.80;;;14.60;99.90;;;;;;5013167;28;20195;-73
2022/04/23 07:56:41;;;;;;;10.83;9.70;;;14.70;99.90;;;;;;5008351;28;20444;-72
2022/04/23 07:59:07;;;;;;;10.20;8.93;;;14.70;99.90;;;;;;5012814;28;20181;-73
2022/04/23 08:01:33;;;;;;;10.80;9.70;;;14.70;99.90;;;;;;5015689;28;21450;-73
2022/04/23 08:04:02;;;;;;;12.77;9.20;;;14.70;99.90;;;;;;5010839;28;20655;-72
2022/04/23 08:06:27;;;;;;;10.23;9.23;;;14.70;99.90;;;;;;5010196;28;20192;-74
2022/04/23 08:08:53;;;;;;;11.80;10.40;;;14.90;99.90;;;;;;5008601;28;21140;-71
2022/04/23 08:11:22;;;;;;;10.47;9.37;;;14.90;99.90;;;;;;5009603;28;20181;-72
2022/04/23 08:13:49;;;;;;;11.53;9.63;;;14.90;99.90;;;;;;5012473;28;20221;-73
2022/04/23 08:16:15;;;;;;;10.40;9.30;;;14.90;99.90;;;;;;5016007;28;20498;-72
2022/04/23 08:18:41;;;;;;;12.63;8.20;;;15.00;99.90;;;;;;5010864;28;20442;-73
2022/04/23 08:21:07;;;;;;;9.57;8.40;;;14.90;99.90;;;;;;5012269;28;20200;-75
2022/04/23 08:23:35;;;;;;;8.50;7.60;;;15.10;99.90;;;;;;5010607;28;20267;-73
2022/04/23 08:26:02;;;;;;;9.50;7.80;;;15.10;99.90;;;;;;5009636;28;20216;-73
2022/04/23 08:31:12;;;;;;;7.43;6.63;;;15.10;99.90;;;;;;5011351;28;20510;-74
2022/04/23 08:36:22;;;;;;;8.90;7.40;;;15.40;99.90;;;;;;5008031;28;20202;-75
2022/04/23 08:38:49;;;;;;;6.93;6.23;;;15.40;99.90;;;;;;5010215;28;20427;-74
2022/04/23 08:41:14;;;;;;;7.10;6.40;;;15.40;99.90;;;;;;5008530;28;20196;-73
2022/04/23 08:43:43;;;;;;;7.63;6.87;;;15.50;99.90;;;;;;5013039;28;20450;-73
2022/04/23 08:46:09;;;;;;;7.33;6.63;;;15.60;99.90;;;;;;5011701;28;20208;-73
2022/04/23 08:48:37;;;;;;;7.80;6.87;;;15.70;99.90;;;;;;5002923;28;20432;-75
2022/04/23 08:51:05;;;;;;;7.77;6.33;;;15.60;99.90;;;;;;5029659;28;20441;-73
2022/04/23 08:53:34;;;;;;;10.60;6.50;;;15.70;99.90;;;;;;5014942;28;20525;-75
2022/04/23 08:56:01;;;;;;;7.37;6.67;;;15.70;99.90;;;;;;5013327;28;20531;-77
2022/04/23 08:58:26;;;;;;;7.17;6.47;;;15.90;99.90;;;;;;5007922;28;20439;-79
2022/04/23 09:00:52;;;;;;;7.37;6.67;;;15.90;99.90;;;;;;5012039;28;20800;-81
2022/04/23 09:03:18;;;;;;;7.50;6.50;;;16.00;99.90;;;;;;5017815;28;20208;-73
2022/04/23 09:05:58;;;;;;;6.17;5.57;;;16.20;99.90;;;;;;5003321;28;20209;-71
2022/04/23 09:08:26;;;;;;;6.77;6.07;;;16.30;99.90;;;;;;5030769;28;20177;-73
2022/04/23 09:10:54;;;;;;;6.47;5.87;;;16.40;99.90;;;;;;5010371;28;20471;-72
2022/04/23 09:13:28;;;;;;;8.30;6.07;;;16.50;99.90;;;;;;5018641;28;20444;-72
2022/04/23 09:24:16;;;;;;;11.23;6.20;;;16.50;99.90;;;;;;5016101;28;20446;-71
2022/04/23 09:26:41;;;;;;;11.43;7.37;;;16.30;99.90;;;;;;5016096;28;20472;-72
2022/04/23 09:29:20;;;;;;;10.03;8.70;;;16.50;99.90;;;;;;5013828;28;20747;-73
2022/04/23 09:31:46;;;;;;;7.03;6.07;;;16.70;99.90;;;;;;5010575;28;20201;-71
2022/04/23 09:34:21;;;;;;;5.23;4.73;;;16.80;99.90;;;;;;5019800;28;20776;-72
2022/04/23 09:36:55;;;;;;;6.57;5.97;;;16.90;99.90;;;;;;5014138;28;20303;-72
2022/04/23 09:39:38;;;;;;;5.67;5.10;;;16.90;99.90;;;;;;5010870;28;20434;-72
2022/04/23 09:42:17;;;;;;;6.53;5.83;;;17.00;99.90;;;;;;5017704;28;20997;-73
2022/04/23 09:44:44;;;;;;;6.53;5.33;;;16.70;99.90;;;;;;5018637;28;20459;-72
2022/04/23 09:47:10;;;;;;;5.50;5.00;;;16.70;99.90;;;;;;5016837;28;20541;-71
2022/04/23 09:49:38;;;;;;;6.77;4.73;;;17.10;99.90;;;;;;5014519;28;20423;-71
2022/04/23 09:52:09;;;;;;;4.70;4.30;;;17.30;99.90;;;;;;5019699;28;20450;-73
2022/04/23 09:54:37;;;;;;;6.30;5.70;;;17.40;99.90;;;;;;5010159;28;20431;-72
2022/04/23 09:57:03;;;;;;;5.83;5.20;;;17.50;99.90;;;;;;5016572;28;20430;-71
2022/04/23 09:59:30;;;;;;;5.30;4.77;;;17.60;99.50;;;;;;5014453;28;20474;-72
2022/04/23 10:01:56;;;;;;;5.17;4.67;;;17.60;99.20;;;;;;5017421;28;20521;-72
2022/04/23 10:04:27;;;;;;;5.43;4.97;;;17.40;99.00;;;;;;5017979;28;21041;-72
2022/04/23 10:06:56;;;;;;;5.80;5.30;;;17.40;99.10;;;;;;5015915;28;21073;-73
2022/04/23 10:09:26;;;;;;;5.53;5.03;;;17.40;98.60;;;;;;5023853;28;20426;-72
2022/04/23 10:12:07;;;;;;;4.97;4.50;;;17.50;98.40;;;;;;5016015;28;20451;-73
2022/04/23 10:14:39;;;;;;;5.37;4.87;;;17.40;98.30;;;;;;5019855;28;20436;-71
2022/04/23 10:17:07;;;;;;;6.53;5.00;;;17.50;98.00;;;;;;5017894;28;21245;-72
2022/04/23 10:19:35;;;;;;;5.50;5.00;;;17.60;97.80;;;;;;5017741;28;20427;-73
2022/04/23 10:22:21;;;;;;;6.37;5.70;;;17.60;97.30;;;;;;5014898;28;20451;-72
2022/04/23 10:25:32;;;;;;;5.33;4.83;;;17.70;97.40;;;;;;5012586;28;21281;-72
2022/04/23 10:27:59;;;;;;;7.43;5.20;;;17.70;96.90;;;;;;5003748;28;21962;-73
2022/04/23 10:30:28;;;;;;;5.93;4.93;;;17.50;97.10;;;;;;5015048;28;20423;-72
2022/04/23 10:32:53;;;;;;;5.30;4.80;;;17.60;96.70;;;;;;5013071;28;20448;-73
2022/04/23 10:35:19;;;;;;;5.30;4.80;;;17.50;97.10;;;;;;5011987;28;20593;-72
2022/04/23 10:37:52;;;;;;;5.67;5.17;;;17.50;97.20;;;;;;5019071;28;20560;-71
2022/04/23 10:40:19;;;;;;;4.80;4.40;;;17.50;96.70;;;;;;5016208;28;21023;-73
2022/04/23 10:43:12;;;;;;;5.10;4.50;;;17.60;97.10;;;;;;5017516;28;21308;-71
2022/04/23 10:45:40;;;;;;;4.90;4.50;;;17.70;96.60;;;;;;5018674;28;20482;-71
2022/04/23 10:48:24;;;;;;;4.80;4.40;;;17.80;96.60;;;;;;5017336;28;20431;-72
2022/04/23 10:51:15;;;;;;;5.40;4.90;;;17.70;96.50;;;;;;5013883;28;20439;-73
2022/04/23 10:53:43;;;;;;;5.70;4.40;;;17.60;96.30;;;;;;5013080;28;20431;-73
2022/04/23 10:56:13;;;;;;;7.20;4.90;;;17.60;96.50;;;;;;5008566;28;20436;-71
2022/04/23 10:58:40;;;;;;;5.20;4.70;;;17.60;96.60;;;;;;5017951;28;20424;-71
2022/04/23 11:01:27;;;;;;;9.60;5.13;;;17.60;96.20;;;;;;5012536;28;20420;-72
2022/04/23 11:03:58;;;;;;;4.73;4.33;;;17.70;95.90;;;;;;5015898;28;20439;-73
2022/04/23 11:12:22;;;;;;;6.00;5.23;;;17.70;95.90;;;;;;5018667;28;20447;-72
2022/04/23 11:14:52;;;;;;;5.50;4.97;;;17.90;96.10;;;;;;5016751;28;20430;-72
2022/04/23 11:17:32;;;;;;;4.80;4.40;;;17.90;95.50;;;;;;5013969;28;20458;-71
2022/04/23 11:19:57;;;;;;;5.40;4.70;;;18.20;95.90;;;;;;5016808;28;20962;-73
2022/04/23 11:22:26;;;;;;;5.93;5.43;;;18.20;94.90;;;;;;5006940;28;20462;-77
2022/04/23 11:24:57;;;;;;;4.90;4.50;;;18.30;94.70;;;;;;5015743;28;20724;-77
2022/04/23 11:27:32;;;;;;;4.90;4.50;;;18.40;94.50;;;;;;5019570;28;20454;-79
2022/04/23 11:29:59;;;;;;;5.47;4.97;;;18.50;94.30;;;;;;5015356;28;20505;-80
2022/04/23 11:32:29;;;;;;;5.20;4.67;;;18.70;94.20;;;;;;5018182;28;20819;-80
2022/04/23 11:34:59;;;;;;;5.97;5.40;;;18.60;94.30;;;;;;5016349;28;20920;-78
2022/04/23 11:37:43;;;;;;;6.20;5.40;;;18.80;94.20;;;;;;5021584;28;20672;-79
2022/04/23 11:40:10;;;;;;;6.60;4.70;;;18.90;93.40;;;;;;5021868;28;20444;-78
2022/04/23 11:42:42;;;;;;;5.40;4.90;;;18.90;93.60;;;;;;5027564;28;20828;-77
2022/04/23 11:45:11;;;;;;;5.40;4.90;;;19.20;93.30;;;;;;5026980;28;20433;-78
2022/04/23 11:47:37;;;;;;;5.43;5.00;;;19.40;92.70;;;;;;5022883;28;20481;-77
2022/04/23 11:50:15;;;;;;;6.07;5.47;;;19.40;92.60;;;;;;5015795;28;20877;-77
2022/04/23 11:52:42;;;;;;;5.73;5.23;;;19.50;92.30;;;;;;5018519;28;20454;-80
2022/04/23 11:55:22;;;;;;;5.50;5.00;;;19.60;92.00;;;;;;5016650;28;20461;-78
2022/04/23 11:57:56;;;;;;;5.80;5.30;;;19.70;92.10;;;;;;5011259;28;20440;-82
2022/04/23 12:00:24;;;;;;;5.37;4.90;;;19.90;91.60;;;;;;5011076;28;20451;-77
2022/04/23 12:02:50;;;;;;;4.97;4.57;;;20.20;91.20;;;;;;5011557;28;20508;-78
2022/04/23 12:05:45;;;;;;;5.03;4.63;;;20.30;90.50;;;;;;5011205;28;20537;-79
2022/04/23 12:08:23;;;;;;;5.17;4.67;;;20.40;87.70;;;;;;5012306;28;20451;-77
2022/04/23 12:10:49;;;;;;;5.70;5.20;;;20.90;88.80;;;;;;5014311;28;20451;-80
2022/04/23 12:13:18;;;;;;;4.60;4.20;;;20.90;86.70;;;;;;5013510;28;20447;-83
2022/04/23 12:15:47;;;;;;;5.83;4.80;;;21.20;84.10;;;;;;5016819;28;20272;-81
2022/04/23 12:18:19;;;;;;;4.47;4.13;;;21.20;83.80;;;;;;5002219;28;20432;-81
2022/04/23 12:20:45;;;;;;;4.20;3.90;;;21.50;84.10;;;;;;5003137;28;21163;-78
2022/04/23 12:23:11;;;;;;;4.90;4.40;;;21.60;83.00;;;;;;5003759;28;20542;-78
2022/04/23 12:25:38;;;;;;;5.70;4.70;;;21.70;80.60;;;;;;5009151;28;20294;-73
2022/04/23 12:41:58;;;;;;;5.43;4.93;;;23.20;74.70;;;;;;5010542;28;20981;-73
2022/04/23 12:44:45;;;;;;;6.20;5.70;;;23.10;73.00;;;;;;5008261;28;20930;-73
2022/04/23 12:47:35;;;;;;;5.17;4.70;;;22.80;72.90;;;;;;5009095;28;20470;-74
2022/04/23 12:50:02;;;;;;;5.57;5.10;;;22.60;73.30;;;;;;5012676;28;20434;-74
2022/04/23 12:52:46;;;;;;;6.77;6.00;;;22.40;72.90;;;;;;5009566;28;20469;-71
2022/04/23 12:55:17;;;;;;;6.63;6.00;;;22.30;73.00;;;;;;5011068;28;20446;-74
2022/04/23 12:57:47;;;;;;;5.63;5.13;;;22.00;73.40;;;;;;5009461;28;20442;-72
2022/04/23 13:00:16;;;;;;;5.37;4.97;;;21.90;74.30;;;;;;5003507;28;20431;-72
2022/04/23 13:02:43;;;;;;;5.37;4.87;;;21.80;74.80;;;;;;5003205;28;20463;-72
2022/04/23 13:05:10;;;;;;;5.93;5.33;;;21.80;74.30;;;;;;5005964;28;20781;-72
2022/04/23 13:10:20;;;;;;;7.33;5.40;;;21.40;73.30;;;;;;5005876;28;20435;-72
2022/04/23 13:12:46;;;;;;;7.37;5.97;;;21.40;74.60;;;;;;5005556;28;20451;-72
2022/04/23 13:15:12;;;;;;;6.80;6.20;;;21.40;75.00;;;;;;5014160;28;20427;-71
2022/04/23 13:17:38;;;;;;;6.20;5.60;;;21.40;75.20;;;;;;5014005;28;21035;-72
2022/04/23 13:20:09;;;;;;;6.73;6.13;;;21.50;75.10;;;;;;5012472;28;20456;-72
2022/04/23 13:22:35;;;;;;;12.43;5.90;;;21.40;75.20;;;;;;5016249;28;20529;-72